Time;durP1;ratioP1;P1;durP2;ratioP2;P2;SDS_P1;SDS_P2;PMS_P1;PMS_P2;Temp;Humidity;BMP_temperature;BMP_pressure;BME280_temperature;BME280_humidity;BME280_pressure;Samples;Min_cycle;Max_cycle;Signal;HPM_P1;HPM_P2
2023/04/27 00:00:17;;;;;;;8.77;5.03;;;;;;;;;;4943029;28;20031;-72
2023/04/27 00:02:43;;;;;;;11.63;5.05;;;;;;;;;;4942001;28;20094;-72
2023/04/27 00:05:09;;;;;;;9.40;5.23;;;;;;;;;;4940908;28;20035;-72
2023/04/27 00:07:35;;;;;;;11.77;5.88;;;;;;;;;;4943462;28;20122;-72
2023/04/27 00:10:00;;;;;;;13.00;5.97;;;;;;;;;;4942537;28;20616;-72
2023/04/27 00:12:25;;;;;;;13.60;6.23;;;;;;;;;;4940058;28;20110;-73
2023/04/27 00:14:51;;;;;;;17.80;6.50;;;;;;;;;;4941405;28;20277;-71
2023/04/27 00:17:16;;;;;;;11.93;6.23;;;;;;;;;;4940390;28;20361;-72
2023/04/27 00:19:41;;;;;;;10.07;5.00;;;;;;;;;;4941952;28;20269;-72
2023/04/27 00:22:07;;;;;;;10.33;5.60;;;;;;;;;;4941886;28;20482;-72
2023/04/27 00:24:32;;;;;;;11.68;5.80;;;;;;;;;;4939264;28;20423;-72
2023/04/27 00:26:58;;;;;;;15.43;6.03;;;;;;;;;;4941121;28;20031;-72
2023/04/27 00:29:23;;;;;;;10.70;5.07;;;;;;;;;;4938121;28;20085;-72
2023/04/27 00:31:48;;;;;;;10.23;5.20;;;;;;;;;;4939255;28;20336;-72
2023/04/27 00:34:13;;;;;;;9.00;5.30;;;;;;;;;;4931918;28;20281;-72
2023/04/27 00:36:38;;;;;;;9.70;5.27;;;;;;;;;;4943727;28;20028;-72
2023/04/27 00:39:05;;;;;;;15.33;6.33;;;;;;;;;;4939692;28;20078;-72
2023/04/27 00:41:31;;;;;;;14.98;5.75;;;;;;;;;;4926271;29;20031;-71
2023/04/27 00:43:57;;;;;;;9.70;5.13;;;;;;;;;;4932084;28;20105;-72
2023/04/27 00:46:23;;;;;;;10.48;5.47;;;;;;;;;;4940281;28;20031;-72
2023/04/27 00:48:48;;;;;;;14.98;5.43;;;;;;;;;;4942189;28;20046;-73
2023/04/27 00:51:13;;;;;;;12.47;5.47;;;;;;;;;;4942204;28;20027;-72
2023/04/27 00:53:39;;;;;;;9.82;5.25;;;;;;;;;;4927074;28;20278;-72
2023/04/27 00:56:05;;;;;;;11.85;5.68;;;;;;;;;;4939039;28;20537;-71
2023/04/27 00:58:30;;;;;;;9.88;5.50;;;;;;;;;;4938878;28;20027;-72
2023/04/27 01:00:56;;;;;;;12.63;6.22;;;;;;;;;;4939102;28;20057;-71
2023/04/27 01:03:21;;;;;;;14.70;5.95;;;;;;;;;;4937252;28;20038;-71
2023/04/27 01:05:47;;;;;;;8.45;5.00;;;;;;;;;;4924114;29;20027;-71
2023/04/27 01:08:12;;;;;;;10.10;5.57;;;;;;;;;;4940791;28;20028;-72
2023/04/27 01:10:37;;;;;;;10.23;5.50;;;;;;;;;;4936770;28;20066;-72
2023/04/27 01:13:02;;;;;;;9.77;5.63;;;;;;;;;;4940234;28;20043;-72
2023/04/27 01:15:28;;;;;;;8.90;5.55;;;;;;;;;;4940726;28;20277;-72
2023/04/27 01:18:00;;;;;;;10.50;5.72;;;;;;;;;;4935990;28;20035;-72
2023/04/27 01:20:29;;;;;;;16.30;5.43;;;;;;;;;;4938442;28;20106;-72
2023/04/27 01:22:55;;;;;;;11.20;5.57;;;;;;;;;;4937370;28;20027;-72
2023/04/27 01:25:20;;;;;;;14.15;6.10;;;;;;;;;;4938399;28;20034;-72
2023/04/27 01:27:45;;;;;;;9.63;6.28;;;;;;;;;;4927208;28;20654;-72
2023/04/27 01:30:11;;;;;;;10.27;6.30;;;;;;;;;;4937953;28;20986;-71
2023/04/27 01:32:37;;;;;;;12.30;6.53;;;;;;;;;;4924819;28;20308;-72
2023/04/27 01:35:02;;;;;;;12.30;6.13;;;;;;;;;;4938697;28;20273;-72
2023/04/27 01:37:28;;;;;;;12.20;5.85;;;;;;;;;;4941073;28;20111;-72
2023/04/27 01:39:53;;;;;;;11.93;6.73;;;;;;;;;;4923905;29;20031;-72
2023/04/27 01:42:18;;;;;;;11.33;6.20;;;;;;;;;;4938278;28;20035;-71
2023/04/27 01:44:43;;;;;;;11.83;6.30;;;;;;;;;;4936855;28;20070;-71
2023/04/27 01:47:09;;;;;;;10.97;6.43;;;;;;;;;;4937740;28;20032;-71
2023/04/27 01:49:34;;;;;;;13.40;6.03;;;;;;;;;;4928902;29;20282;-72
2023/04/27 01:51:59;;;;;;;15.00;6.07;;;;;;;;;;4937165;28;20285;-72
2023/04/27 01:54:25;;;;;;;9.93;6.15;;;;;;;;;;4925055;28;20644;-72
2023/04/27 01:56:50;;;;;;;13.90;6.07;;;;;;;;;;4938295;28;20545;-71
2023/04/27 01:59:15;;;;;;;15.77;6.40;;;;;;;;;;4936422;28;20027;-71
2023/04/27 02:01:41;;;;;;;11.87;5.87;;;;;;;;;;4935114;28;20294;-71
2023/04/27 02:04:06;;;;;;;12.68;6.65;;;;;;;;;;4934709;28;20146;-72
2023/04/27 02:06:31;;;;;;;17.47;7.20;;;;;;;;;;4933675;28;20114;-72
2023/04/27 02:08:57;;;;;;;13.27;6.40;;;;;;;;;;4925411;29;20273;-72
2023/04/27 02:11:22;;;;;;;11.03;6.40;;;;;;;;;;4940663;28;20684;-72
2023/04/27 02:13:47;;;;;;;11.57;6.53;;;;;;;;;;4937429;28;20387;-72
2023/04/27 02:16:12;;;;;;;13.70;6.93;;;;;;;;;;4941810;28;20696;-72
2023/04/27 02:18:38;;;;;;;13.67;7.60;;;;;;;;;;4935146;28;20028;-72
2023/04/27 02:21:09;;;;;;;15.20;7.60;;;;;;;;;;4939083;28;20285;-72
2023/04/27 02:23:35;;;;;;;19.77;7.63;;;;;;;;;;4932220;29;20360;-70
2023/04/27 02:26:00;;;;;;;15.57;8.60;;;;;;;;;;4935765;28;20123;-73
2023/04/27 02:28:26;;;;;;;18.55;8.02;;;;;;;;;;4923553;29;20530;-73
2023/04/27 02:30:51;;;;;;;14.75;8.05;;;;;;;;;;4941576;28;20954;-71
2023/04/27 02:33:16;;;;;;;14.40;7.80;;;;;;;;;;4924428;29;20145;-72
2023/04/27 02:35:42;;;;;;;14.25;7.60;;;;;;;;;;4921977;28;20289;-71
2023/04/27 02:38:07;;;;;;;12.57;7.97;;;;;;;;;;4938473;28;20667;-71
2023/04/27 02:40:32;;;;;;;17.10;7.43;;;;;;;;;;4929423;29;20123;-71
2023/04/27 02:42:57;;;;;;;17.17;8.32;;;;;;;;;;4936248;28;20027;-72
2023/04/27 02:45:23;;;;;;;14.77;7.90;;;;;;;;;;4936816;28;20032;-71
2023/04/27 02:47:49;;;;;;;19.80;7.90;;;;;;;;;;4930080;29;20782;-72
2023/04/27 02:50:14;;;;;;;15.40;8.40;;;;;;;;;;4925281;28;20023;-71
2023/04/27 02:52:40;;;;;;;15.80;8.37;;;;;;;;;;4925802;29;20035;-71
2023/04/27 02:55:05;;;;;;;14.23;8.53;;;;;;;;;;4937204;28;20274;-69
2023/04/27 02:57:31;;;;;;;17.77;9.18;;;;;;;;;;4935928;28;20274;-69
2023/04/27 02:59:56;;;;;;;19.35;9.52;;;;;;;;;;4939810;28;20026;-73
2023/04/27 03:02:22;;;;;;;13.88;9.07;;;;;;;;;;4935524;28;20526;-73
2023/04/27 03:04:52;;;;;;;18.05;9.18;;;;;;;;;;4920839;28;20032;-73
2023/04/27 03:07:20;;;;;;;15.85;8.68;;;;;;;;;;4938127;28;20023;-72
2023/04/27 03:09:46;;;;;;;19.40;10.07;;;;;;;;;;4934667;28;20035;-72
2023/04/27 03:12:11;;;;;;;18.83;10.40;;;;;;;;;;4936501;28;20884;-72
2023/04/27 03:14:36;;;;;;;16.75;9.60;;;;;;;;;;4936312;28;20284;-70
2023/04/27 03:17:02;;;;;;;14.80;9.07;;;;;;;;;;4921236;28;20023;-72
2023/04/27 03:19:27;;;;;;;16.42;9.07;;;;;;;;;;4937416;28;20282;-70
2023/04/27 03:21:52;;;;;;;16.13;8.65;;;;;;;;;;4940212;28;20027;-72
2023/04/27 03:24:18;;;;;;;20.00;9.13;;;;;;;;;;4941259;28;20028;-71
2023/04/27 03:26:43;;;;;;;17.40;9.50;;;;;;;;;;4943035;28;20321;-72
2023/04/27 03:29:08;;;;;;;16.10;9.13;;;;;;;;;;4946901;28;20740;-73
2023/04/27 03:31:34;;;;;;;20.85;9.73;;;;;;;;;;4941393;28;20103;-74
2023/04/27 03:33:59;;;;;;;16.00;8.90;;;;;;;;;;4937937;28;20042;-73
2023/04/27 03:36:25;;;;;;;17.67;9.43;;;;;;;;;;4939774;28;20734;-72
2023/04/27 03:38:51;;;;;;;17.33;10.07;;;;;;;;;;4942880;28;20083;-74
2023/04/27 03:41:16;;;;;;;23.45;10.13;;;;;;;;;;4942882;28;20031;-73
2023/04/27 03:43:41;;;;;;;18.10;10.23;;;;;;;;;;4941651;28;20074;-74
2023/04/27 03:46:07;;;;;;;14.43;9.20;;;;;;;;;;4941013;28;20277;-74
2023/04/27 03:48:32;;;;;;;17.30;9.43;;;;;;;;;;4942678;28;20556;-74
2023/04/27 03:50:59;;;;;;;18.13;9.38;;;;;;;;;;4926440;29;20039;-73
2023/04/27 03:53:24;;;;;;;17.75;9.13;;;;;;;;;;4938827;28;20081;-74
2023/04/27 03:55:49;;;;;;;19.33;8.77;;;;;;;;;;4938815;28;20561;-74
2023/04/27 03:58:16;;;;;;;17.77;8.73;;;;;;;;;;4937237;28;20057;-73
2023/04/27 04:00:41;;;;;;;16.83;8.45;;;;;;;;;;4925495;29;20023;-73
2023/04/27 04:03:07;;;;;;;19.37;9.30;;;;;;;;;;4943269;28;20541;-73
2023/04/27 04:05:32;;;;;;;18.17;9.20;;;;;;;;;;4939684;28;20630;-75
2023/04/27 04:07:58;;;;;;;17.15;9.00;;;;;;;;;;4939749;28;20521;-74
2023/04/27 04:10:23;;;;;;;17.85;9.30;;;;;;;;;;4939718;28;20400;-74
2023/04/27 04:12:48;;;;;;;15.38;8.50;;;;;;;;;;4940301;28;20070;-74
2023/04/27 04:15:14;;;;;;;21.27;9.75;;;;;;;;;;4938335;28;20490;-74
2023/04/27 04:17:39;;;;;;;17.02;8.80;;;;;;;;;;4926845;29;20027;-73
2023/04/27 04:20:09;;;;;;;16.90;8.90;;;;;;;;;;4940987;28;20031;-73
2023/04/27 04:22:34;;;;;;;17.60;8.73;;;;;;;;;;4941381;28;20348;-73
2023/04/27 04:25:00;;;;;;;20.35;8.63;;;;;;;;;;4924710;28;20031;-74
2023/04/27 04:27:25;;;;;;;16.35;9.20;;;;;;;;;;4925087;28;20455;-73
2023/04/27 04:29:50;;;;;;;27.25;11.63;;;;;;;;;;4942622;28;20027;-73
2023/04/27 04:32:17;;;;;;;23.30;11.13;;;;;;;;;;4940115;28;20032;-74
2023/04/27 04:34:42;;;;;;;17.90;10.38;;;;;;;;;;4940871;28;20351;-71
2023/04/27 04:37:08;;;;;;;18.30;9.82;;;;;;;;;;4939301;28;20646;-71
2023/04/27 04:39:33;;;;;;;18.02;9.23;;;;;;;;;;4925387;29;20502;-72
2023/04/27 04:41:58;;;;;;;17.48;10.55;;;;;;;;;;4936869;28;20031;-72
2023/04/27 04:44:24;;;;;;;18.58;10.27;;;;;;;;;;4937699;28;20020;-73
2023/04/27 04:46:50;;;;;;;20.17;8.95;;;;;;;;;;4938884;28;20035;-73
2023/04/27 04:49:15;;;;;;;17.92;8.77;;;;;;;;;;4939287;28;20042;-71
2023/04/27 04:51:41;;;;;;;14.00;8.00;;;;;;;;;;4939270;28;20110;-72
2023/04/27 04:54:06;;;;;;;14.30;8.13;;;;;;;;;;4937650;29;20030;-72
2023/04/27 04:56:31;;;;;;;12.07;6.93;;;;;;;;;;4939195;28;20523;-72
2023/04/27 04:58:56;;;;;;;13.80;7.10;;;;;;;;;;4938845;28;20114;-71
2023/04/27 05:01:22;;;;;;;20.80;7.13;;;;;;;;;;4938603;28;20614;-71
2023/04/27 05:03:47;;;;;;;13.88;7.35;;;;;;;;;;4939821;28;20024;-72
2023/04/27 05:06:12;;;;;;;14.40;6.90;;;;;;;;;;4937382;28;20031;-71
2023/04/27 05:08:39;;;;;;;12.73;6.27;;;;;;;;;;4940066;28;20027;-70
2023/04/27 05:11:04;;;;;;;10.00;6.20;;;;;;;;;;4938124;28;20042;-70
2023/04/27 05:13:30;;;;;;;11.43;6.13;;;;;;;;;;4938521;28;20027;-70
2023/04/27 05:15:58;;;;;;;9.30;5.22;;;;;;;;;;4941061;28;20543;-71
2023/04/27 05:18:23;;;;;;;16.05;5.75;;;;;;;;;;4940731;28;20012;-70
2023/04/27 05:20:48;;;;;;;11.67;5.80;;;;;;;;;;4928408;29;20031;-70
2023/04/27 05:23:13;;;;;;;10.93;5.77;;;;;;;;;;4924094;29;20301;-70
2023/04/27 05:25:42;;;;;;;17.02;6.53;;;;;;;;;;4922620;28;20063;-70
2023/04/27 05:28:10;;;;;;;19.70;6.57;;;;;;;;;;4939263;28;20049;-69
2023/04/27 05:30:35;;;;;;;16.70;7.10;;;;;;;;;;4942534;28;20031;-70
2023/04/27 05:33:01;;;;;;;12.93;6.22;;;;;;;;;;4939179;28;20030;-70
2023/04/27 05:35:26;;;;;;;13.90;7.40;;;;;;;;;;4924927;29;20032;-70
2023/04/27 05:37:51;;;;;;;14.77;8.10;;;;;;;;;;4939638;28;20024;-70
2023/04/27 05:40:17;;;;;;;13.87;6.47;;;;;;;;;;4935847;28;20301;-71
2023/04/27 05:42:44;;;;;;;12.05;5.82;;;;;;;;;;4922377;29;20278;-70
2023/04/27 05:45:10;;;;;;;12.02;6.07;;;;;;;;;;4938012;28;20117;-71
2023/04/27 05:47:35;;;;;;;12.00;6.00;;;;;;;;;;4940287;28;20062;-72
2023/04/27 05:50:00;;;;;;;12.27;5.73;;;;;;;;;;4923967;29;20389;-71
2023/04/27 05:52:29;;;;;;;11.57;5.80;;;;;;;;;;4939053;28;20378;-71
2023/04/27 05:54:55;;;;;;;8.73;5.22;;;;;;;;;;4939879;28;20281;-72
2023/04/27 05:57:21;;;;;;;11.35;5.97;;;;;;;;;;4922454;29;20513;-70
2023/04/27 05:59:46;;;;;;;10.02;6.05;;;;;;;;;;4937440;28;20118;-72
2023/04/27 06:02:11;;;;;;;12.10;5.40;;;;;;;;;;4937156;28;20035;-72
2023/04/27 06:04:37;;;;;;;10.82;5.53;;;;;;;;;;4939107;28;20285;-71
2023/04/27 06:07:09;;;;;;;9.65;4.97;;;;;;;;;;4934817;28;20599;-71
2023/04/27 06:09:35;;;;;;;7.38;4.63;;;;;;;;;;4939721;28;20035;-70
2023/04/27 06:12:01;;;;;;;10.60;4.65;;;;;;;;;;4935989;28;20028;-69
2023/04/27 06:14:27;;;;;;;7.03;4.00;;;;;;;;;;4922441;28;20027;-71
2023/04/27 06:16:52;;;;;;;6.53;4.25;;;;;;;;;;4938860;28;20086;-71
2023/04/27 06:19:17;;;;;;;12.63;4.20;;;;;;;;;;4924703;28;20027;-70
2023/04/27 06:21:43;;;;;;;8.27;4.15;;;;;;;;;;4927039;28;20449;-70
2023/04/27 06:24:08;;;;;;;7.07;3.90;;;;;;;8.25;nan;100757.03;4937452;28;20063;-70
2023/04/27 06:26:33;;;;;;;11.52;3.70;;;;;;;;;;4939510;28;20570;-72
2023/04/27 06:28:59;;;;;;;6.75;3.78;;;;;;;;;;4936233;28;20138;-72
2023/04/27 06:31:25;;;;;;;8.85;3.70;;;;;;;;;;4923263;29;20023;-71
2023/04/27 06:33:50;;;;;;;6.75;3.75;;;;;;;;;;4925113;28;20035;-71
2023/04/27 06:36:16;;;;;;;7.78;3.35;;;;;;;;;;4940246;28;20031;-72
2023/04/27 06:38:41;;;;;;;7.67;3.60;;;;;;;;;;4937653;28;20548;-72
2023/04/27 06:41:06;;;;;;;7.20;3.90;;;;;;;;;;4939012;28;20277;-72
2023/04/27 06:43:32;;;;;;;4.88;3.53;;;;;;;;;;4939763;28;20282;-71
2023/04/27 06:45:57;;;;;;;7.87;3.60;;;;;;;;;;4937782;28;20055;-71
2023/04/27 06:48:22;;;;;;;9.93;3.83;;;;;;;;;;4934158;28;20644;-72
2023/04/27 06:50:47;;;;;;;8.40;4.53;;;;;;;;;;4923926;29;20154;-72
2023/04/27 06:53:13;;;;;;;7.53;4.40;;;;;;;;;;4938761;28;20280;-71
2023/04/27 06:55:38;;;;;;;12.50;3.85;;;;;;;;;;4940366;28;20394;-69
2023/04/27 06:58:03;;;;;;;11.35;3.95;;;;;;;;;;4937116;28;20449;-69
2023/04/27 07:00:29;;;;;;;6.05;3.00;;;;;;;;;;4936597;29;20047;-68
2023/04/27 07:02:55;;;;;;;7.57;3.17;;;;;;;;;;4935154;29;20035;-68
2023/04/27 07:05:20;;;;;;;10.48;3.40;;;;;;;;;;4937343;28;20027;-69
2023/04/27 07:07:46;;;;;;;8.43;3.10;;;;;;;;;;4937370;28;20478;-68
2023/04/27 07:10:11;;;;;;;11.87;3.73;;;;;;;;;;4936683;28;20317;-69
2023/04/27 07:12:36;;;;;;;6.27;3.33;;;;;;;;;;4930050;29;20040;-69
2023/04/27 07:15:03;;;;;;;7.00;3.42;;;;;;;;;;4937938;28;20036;-71
2023/04/27 07:17:28;;;;;;;8.63;3.55;;;;;;;;;;4935660;28;20124;-71
2023/04/27 07:19:53;;;;;;;9.75;3.33;;;;;;;;;;4937778;29;20066;-70
2023/04/27 07:22:19;;;;;;;7.05;3.38;;;;;;;;;;4920257;29;20039;-70
2023/04/27 07:24:44;;;;;;;8.70;3.78;;;;;;;;;;4936501;28;20031;-71
2023/04/27 07:27:10;;;;;;;7.47;3.20;;;;;;;;;;4924853;28;20058;-71
2023/04/27 07:29:36;;;;;;;9.40;3.67;;;;;;;;;;4936753;28;20031;-70
2023/04/27 07:32:04;;;;;;;6.00;3.20;;;;;;;;;;4923915;29;20039;-70
2023/04/27 07:34:30;;;;;;;6.93;3.20;;;;;;;9.03;nan;100781.88;4937163;29;20133;-70
2023/04/27 07:36:55;;;;;;;6.35;3.08;;;;;;;;;;4934778;28;20458;-70
2023/04/27 07:39:21;;;;;;;7.65;3.28;;;;;;;;;;4938458;28;20023;-69
2023/04/27 07:41:47;;;;;;;8.77;2.85;;;;;;;;;;4928414;28;20035;-71
2023/04/27 07:44:12;;;;;;;5.28;2.65;;;;;;;;;;4937318;28;20050;-70
2023/04/27 07:46:37;;;;;;;6.13;2.60;;;;;;;;;;4936355;28;20025;-70
2023/04/27 07:49:03;;;;;;;7.20;2.97;;;;;;;;;;4937789;28;20032;-71
2023/04/27 07:51:28;;;;;;;12.47;2.80;;;;;;;;;;4927305;28;20035;-71
2023/04/27 07:53:54;;;;;;;9.63;2.92;;;;;;;;;;4938867;28;20019;-70
2023/04/27 07:56:19;;;;;;;6.35;2.47;;;;;;;;;;4937427;28;20035;-71
2023/04/27 07:58:45;;;;;;;7.78;2.10;;;;;;;;;;4937652;28;20066;-72
2023/04/27 08:01:10;;;;;;;6.97;2.10;;;;;;;;;;4938923;28;20023;-71
2023/04/27 08:03:35;;;;;;;7.70;2.22;;;;;;;;;;4936238;28;20031;-71
2023/04/27 08:06:01;;;;;;;4.93;2.07;;;;;;;;;;4942870;28;20027;-71
2023/04/27 08:08:27;;;;;;;3.60;2.03;;;;;;;;;;4937605;28;20282;-73
2023/04/27 08:10:53;;;;;;;9.02;2.05;;;;;;;;;;4941526;28;20367;-71
2023/04/27 08:13:18;;;;;;;7.13;2.00;;;;;;;;;;4943091;28;20034;-73
2023/04/27 08:15:43;;;;;;;6.60;2.10;;;;;;;;;;4944253;28;20276;-72
2023/04/27 08:18:08;;;;;;;4.50;2.10;;;;;;;;;;4940687;28;20895;-72
2023/04/27 08:20:33;;;;;;;8.57;2.27;;;;;;;;;;4926416;29;20748;-72
2023/04/27 08:22:59;;;;;;;4.13;1.90;;;;;;;;;;4937985;28;20027;-73
2023/04/27 08:25:25;;;;;;;5.32;2.33;;;;;;;;;;4941471;28;20282;-71
2023/04/27 08:27:50;;;;;;;7.25;2.50;;;;;;;;;;4938213;28;20050;-72
2023/04/27 08:30:15;;;;;;;3.72;2.17;;;;;;;;;;4941814;28;20452;-73
2023/04/27 08:32:41;;;;;;;9.77;2.95;;;;;;;;;;4937725;28;20034;-72
2023/04/27 08:35:06;;;;;;;3.72;1.98;;;;;;;;;;4923715;29;20035;-72
2023/04/27 08:37:31;;;;;;;9.52;2.20;;;;;;;;;;4938215;28;20062;-73
2023/04/27 08:39:57;;;;;;;4.67;2.03;;;;;;;;;;4939239;28;20032;-72
2023/04/27 08:42:22;;;;;;;7.20;2.10;;;;;;;;;;4939372;28;20023;-72
2023/04/27 08:44:47;;;;;;;5.53;2.57;;;;;;;;;;4923687;29;20670;-72
2023/04/27 08:47:12;;;;;;;5.73;2.50;;;;;;;;;;4939455;28;20474;-72
2023/04/27 08:49:40;;;;;;;4.38;1.85;;;;;;;;;;4926783;29;20031;-72
2023/04/27 08:52:12;;;;;;;9.77;2.50;;;;;;;;;;4938776;28;20051;-72
2023/04/27 08:54:37;;;;;;;8.57;2.33;;;;;;;;;;4940955;28;20035;-72
2023/04/27 08:57:07;;;;;;;7.75;2.63;;;;;;;;;;4940620;28;20020;-73
2023/04/27 08:59:35;;;;;;;4.38;1.95;;;;;;;;;;4938313;28;20027;-72
2023/04/27 09:02:00;;;;;;;6.30;2.40;;;;;;;;;;4930063;29;20043;-72
2023/04/27 09:04:35;;;;;;;4.40;2.10;;;;;;;;;;4936980;28;20548;-70
2023/04/27 09:07:08;;;;;;;5.90;2.00;;;;;;;;;;4935814;28;20067;-71
2023/04/27 09:09:34;;;;;;;8.38;2.35;;;;;;;;;;4940007;28;20032;-72
2023/04/27 09:12:01;;;;;;;3.85;2.10;;;;;;;;;;4930275;29;20490;-72
2023/04/27 09:14:26;;;;;;;7.32;1.98;;;;;;;;;;4938002;28;20028;-73
2023/04/27 09:16:54;;;;;;;6.20;1.60;;;;;;;;;;4940539;28;20587;-72
2023/04/27 09:19:23;;;;;;;6.60;1.90;;;;;;;;;;4935988;28;20038;-72
2023/04/27 09:21:49;;;;;;;8.00;2.58;;;;;;;;;;4938410;28;20035;-73
2023/04/27 09:24:15;;;;;;;5.20;1.90;;;;;;;;;;4937175;28;20094;-72
2023/04/27 09:26:42;;;;;;;6.38;2.40;;;;;;;;;;4938961;29;20119;-70
2023/04/27 09:29:08;;;;;;;9.00;2.53;;;;;;;;;;4918751;29;20047;-72
2023/04/27 09:31:34;;;;;;;6.38;2.33;;;;;;;;;;4919547;29;20036;-73
2023/04/27 09:33:59;;;;;;;4.47;1.95;;;;;;;;;;4918631;29;20031;-73
2023/04/27 09:36:25;;;;;;;4.30;2.07;;;;;;;;;;4937250;28;20068;-72
2023/04/27 09:38:53;;;;;;;5.82;2.00;;;;;;;;;;4921135;29;20297;-72
2023/04/27 09:41:18;;;;;;;2.50;1.58;;;;;;;;;;4922258;29;20037;-71
2023/04/27 09:43:46;;;;;;;3.15;1.70;;;;;;;;;;4930910;28;20031;-70
2023/04/27 09:46:12;;;;;;;5.43;2.40;;;;;;;;;;4917891;29;20039;-71
2023/04/27 09:48:38;;;;;;;4.18;2.00;;;;;;;;;;4916796;29;20087;-70
2023/04/27 09:51:03;;;;;;;4.53;1.83;;;;;;;;;;4920725;29;20120;-70
2023/04/27 09:53:42;;;;;;;6.47;2.40;;;;;;;;;;4931648;29;20401;-71
2023/04/27 09:56:08;;;;;;;4.40;1.98;;;;;;;;;;4917888;29;20039;-70
2023/04/27 09:58:36;;;;;;;6.00;2.07;;;;;;;;;;4933845;28;20036;-71
2023/04/27 10:01:09;;;;;;;4.20;2.05;;;;;;;;;;4924522;29;20032;-70
2023/04/27 10:03:47;;;;;;;5.50;2.13;;;;;;;;;;4935807;28;20085;-70
2023/04/27 10:06:42;;;;;;;5.60;1.95;;;;;;;;;;4917757;29;20471;-71
2023/04/27 10:09:08;;;;;;;8.88;2.20;;;;;;;;;;4932147;28;20143;-70
2023/04/27 10:11:53;;;;;;;5.65;2.10;;;;;;;;;;4919458;29;20095;-72
2023/04/27 10:14:20;;;;;;;9.07;2.50;;;;;;;;;;4917641;29;20434;-70
2023/04/27 10:16:51;;;;;;;2.42;1.85;;;;;;;;;;4917541;29;20587;-72
2023/04/27 10:19:16;;;;;;;4.43;1.63;;;;;;;;;;4934013;28;20036;-69
2023/04/27 10:22:06;;;;;;;3.97;2.05;;;;;;;;;;4918040;29;20443;-71
2023/04/27 10:24:35;;;;;;;7.20;2.35;;;;;;;;;;4921147;29;20032;-70
2023/04/27 10:27:06;;;;;;;6.85;2.58;;;;;;;;;;4916578;29;20044;-68
2023/04/27 10:29:50;;;;;;;7.40;2.72;;;;;;;;;;4937879;28;20481;-68
2023/04/27 10:32:25;;;;;;;5.55;2.78;;;;;;;;;;4929538;28;20039;-68
2023/04/27 10:35:10;;;;;;;7.32;2.70;;;;;;;;;;4934526;29;20083;-70
2023/04/27 10:37:42;;;;;;;4.38;2.50;;;;;;;;;;4936061;28;20123;-70
2023/04/27 10:40:16;;;;;;;4.45;2.30;;;;;;;;;;4937678;28;20027;-69
2023/04/27 10:42:41;;;;;;;5.50;2.55;;;;;;;;;;4936137;28;20042;-71
2023/04/27 10:45:07;;;;;;;7.75;2.78;;;;;;;;;;4935600;28;20390;-69
2023/04/27 10:47:37;;;;;;;6.72;2.50;;;;;;;;;;4938869;28;20106;-72
2023/04/27 10:50:02;;;;;;;;;;;;;;;;;;4939945;28;20036;-71
2023/04/27 10:52:27;;;;;;;4.93;2.28;;;;;;;;;;4939032;28;19934;-70
2023/04/27 10:54:52;;;;;;;5.07;2.70;;;;;;;;;;4936172;28;20047;-68
2023/04/27 10:57:18;;;;;;;6.20;2.70;;;;;;;;;;4937421;28;20064;-70
2023/04/27 10:59:48;;;;;;;6.27;2.37;;;;;;;;;;4927358;29;20887;-71
2023/04/27 11:02:14;;;;;;;6.40;2.30;;;;;;;11.74;nan;100824.97;4921480;29;20050;-72
2023/04/27 11:04:40;;;;;;;4.38;2.60;;;;;;;;;;4940170;28;20493;-73
2023/04/27 11:07:09;;;;;;;6.35;2.60;;;;;;;;;;4937219;28;20097;-72
2023/04/27 11:09:38;;;;;;;5.38;2.50;;;;;;;;;;4937646;28;20469;-72
2023/04/27 11:12:07;;;;;;;6.63;2.50;;;;;;;;;;4936285;28;20505;-71
2023/04/27 11:14:33;;;;;;;5.95;2.50;;;;;;;;;;4937694;28;20087;-73
2023/04/27 11:16:59;;;;;;;6.75;2.30;;;;;;;;;;4939408;28;20042;-72
2023/04/27 11:19:24;;;;;;;4.05;2.17;;;;;;;;;;4927850;28;20027;-74
2023/04/27 11:21:49;;;;;;;7.60;2.80;;;;;;;;;;4927141;28;20032;-76
2023/04/27 11:24:15;;;;;;;5.73;2.73;;;;;;;;;;4934987;28;20074;-74
2023/04/27 11:26:40;;;;;;;5.70;2.47;;;;;;;;;;4936283;28;20764;-74
2023/04/27 11:29:12;;;;;;;6.77;2.20;;;;;;;;;;4944145;28;20721;-71
2023/04/27 11:31:42;;;;;;;5.38;2.50;;;;;;;;;;4937253;28;20381;-71
2023/04/27 11:34:08;;;;;;;5.00;2.58;;;;;;;;;;4935950;29;20033;-71
2023/04/27 11:36:33;;;;;;;5.30;2.33;;;;;;;;;;4943182;28;20057;-72
2023/04/27 11:38:59;;;;;;;6.87;2.63;;;;;;;;;;4940826;28;20059;-69
2023/04/27 11:41:38;;;;;;;3.15;1.92;;;;;;;;;;4941662;28;20295;-70
2023/04/27 11:44:10;;;;;;;7.82;2.67;;;;;;;;;;4931643;29;20086;-71
2023/04/27 11:46:35;;;;;;;4.22;2.40;;;;;;;;;;4940487;28;20501;-69
2023/04/27 11:49:05;;;;;;;5.30;2.13;;;;;;;;;;4937961;28;20115;-72
2023/04/27 11:51:32;;;;;;;6.88;2.30;;;;;;;;;;4939506;28;20043;-71
2023/04/27 11:54:01;;;;;;;5.00;2.38;;;;;;;;;;4936309;28;20065;-71
2023/04/27 11:56:32;;;;;;;7.95;2.40;;;;;;;;;;4926757;28;20039;-70
2023/04/27 11:58:57;;;;;;;6.97;2.15;;;;;;;;;;4940090;28;20037;-72
2023/04/27 12:01:23;;;;;;;5.27;2.27;;;;;;;;;;4940705;28;20027;-70
2023/04/27 12:03:48;;;;;;;3.92;2.17;;;;;;;;;;4928141;29;20278;-71
2023/04/27 12:06:13;;;;;;;4.07;2.20;;;;;;;;;;4925235;28;20035;-70
2023/04/27 12:08:39;;;;;;;6.40;2.20;;;;;;;;;;4939751;28;20652;-75
2023/04/27 12:11:04;;;;;;;5.53;2.50;;;;;;;;;;4927348;28;20087;-73
2023/04/27 12:13:30;;;;;;;7.15;2.35;;;;;;;;;;4926553;29;21084;-74
2023/04/27 12:15:55;;;;;;;7.00;2.72;;;;;;;;;;4925004;28;20031;-76
2023/04/27 12:18:21;;;;;;;7.63;2.75;;;;;;;;;;4941364;28;20642;-75
2023/04/27 12:20:46;;;;;;;5.47;2.47;;;;;;;;;;4934006;28;20057;-73
2023/04/27 12:23:11;;;;;;;5.95;2.20;;;;;;;;;;4943607;28;20031;-74
2023/04/27 12:25:39;;;;;;;5.93;2.75;;;;;;;;;;4939250;28;20039;-74
2023/04/27 12:28:05;;;;;;;8.35;2.55;;;;;;;;;;4943373;28;20068;-73
2023/04/27 12:30:30;;;;;;;7.97;2.70;;;;;;;;;;4939459;28;20058;-74
2023/04/27 12:32:58;;;;;;;6.23;2.53;;;;;;;;;;4925523;29;20047;-74
2023/04/27 12:35:23;;;;;;;4.68;2.30;;;;;;;;;;4924219;28;20269;-72
2023/04/27 12:37:49;;;;;;;7.43;2.95;;;;;;;;;;4943204;28;20034;-73
2023/04/27 12:40:14;;;;;;;7.85;2.42;;;;;;;;;;4937914;28;20042;-72
2023/04/27 12:42:39;;;;;;;10.00;3.13;;;;;;;;;;4943497;28;20110;-73
2023/04/27 12:45:08;;;;;;;8.18;2.83;;;;;;;;;;4941227;28;20477;-72
2023/04/27 12:47:33;;;;;;;5.50;2.87;;;;;;;;;;4924593;28;20042;-73
2023/04/27 12:50:01;;;;;;;6.43;2.72;;;;;;;;;;4939622;28;20107;-72
2023/04/27 12:52:26;;;;;;;8.18;2.80;;;;;;;;;;4939984;28;20035;-73
2023/04/27 12:54:56;;;;;;;9.82;3.40;;;;;;;;;;4920482;28;20046;-74
2023/04/27 12:57:21;;;;;;;6.10;2.85;;;;;;;;;;4931184;29;20073;-76
2023/04/27 12:59:47;;;;;;;7.50;2.85;;;;;;;;;;4938209;28;20042;-74
2023/04/27 13:02:12;;;;;;;4.35;2.72;;;;;;;;;;4923618;29;20091;-70
2023/04/27 13:04:37;;;;;;;6.87;2.60;;;;;;;;;;4940049;28;20023;-69
2023/04/27 13:07:03;;;;;;;5.63;2.83;;;;;;;;;;4943341;28;20272;-70
2023/04/27 13:09:28;;;;;;;6.10;2.60;;;;;;;;;;4937760;28;20027;-70
2023/04/27 13:11:56;;;;;;;4.97;2.85;;;;;;;;;;4930854;29;20035;-69
2023/04/27 13:14:21;;;;;;;9.65;2.88;;;;;;;;;;4938863;28;20509;-70
2023/04/27 13:16:47;;;;;;;4.55;2.80;;;;;;;;;;4931340;29;20090;-70
2023/04/27 13:19:12;;;;;;;8.85;2.78;;;;;;;;;;4939061;28;20019;-68
2023/04/27 13:21:37;;;;;;;5.00;2.40;;;;;;;;;;4937186;28;20046;-69
2023/04/27 13:24:03;;;;;;;7.67;2.53;;;;;;;;;;4925049;28;20962;-69
2023/04/27 13:26:28;;;;;;;7.28;2.40;;;;;;;;;;4931494;29;20381;-70
2023/04/27 13:28:54;;;;;;;5.45;2.70;;;;;;;;;;4927556;29;20130;-71
2023/04/27 13:31:19;;;;;;;6.20;2.83;;;;;;;;;;4929154;28;20050;-68
2023/04/27 13:33:44;;;;;;;6.00;3.03;;;;;;;;;;4924832;28;20035;-70
2023/04/27 13:36:10;;;;;;;7.93;2.67;;;;;;;;;;4940960;28;20059;-73
2023/04/27 13:38:35;;;;;;;7.43;2.72;;;;;;;;;;4937195;28;20772;-69
2023/04/27 13:41:01;;;;;;;6.53;2.75;;;;;;;;;;4919981;29;20039;-70
2023/04/27 13:43:26;;;;;;;7.47;2.80;;;;;;;;;;4929553;29;20036;-70
2023/04/27 13:45:54;;;;;;;4.90;2.63;;;;;;;;;;4936963;28;20016;-70
2023/04/27 13:48:19;;;;;;;8.07;2.78;;;;;;;;;;4924712;29;20296;-70
2023/04/27 13:50:45;;;;;;;8.10;2.53;;;;;;;;;;4940722;28;20039;-71
2023/04/27 13:53:10;;;;;;;8.57;2.30;;;;;;;;;;4933709;28;20037;-71
2023/04/27 13:55:36;;;;;;;6.25;2.45;;;;;;;;;;4924779;29;20039;-70
2023/04/27 13:58:01;;;;;;;4.88;2.40;;;;;;;;;;4938039;28;20035;-72
2023/04/27 14:00:32;;;;;;;6.97;2.47;;;;;;;;;;4934848;28;20042;-69
2023/04/27 14:02:57;;;;;;;7.80;2.83;;;;;;;;;;4938349;28;20032;-71
2023/04/27 14:05:23;;;;;;;6.65;2.40;;;;;;;;;;4938770;28;20078;-71
2023/04/27 14:07:48;;;;;;;6.53;2.90;;;;;;;;;;4939652;28;20073;-69
2023/04/27 14:10:14;;;;;;;6.20;2.77;;;;;;;;;;4941959;28;20086;-71
2023/04/27 14:12:39;;;;;;;8.00;2.33;;;;;;;;;;4938357;28;20361;-71
2023/04/27 14:15:05;;;;;;;5.50;2.70;;;;;;;;;;4926250;29;20043;-70
2023/04/27 14:17:32;;;;;;;4.72;2.53;;;;;;;;;;4936877;28;20107;-70
2023/04/27 14:19:58;;;;;;;7.80;2.80;;;;;;;;;;4938220;28;20035;-71
2023/04/27 14:22:23;;;;;;;8.65;2.85;;;;;;;;;;4939027;28;20632;-69
2023/04/27 14:24:48;;;;;;;6.65;2.50;;;;;;;;;;4935930;28;20025;-70
2023/04/27 14:27:14;;;;;;;9.07;3.00;;;;;;;;;;4929191;28;20399;-71
2023/04/27 14:29:39;;;;;;;6.22;2.40;;;;;;;;;;4938908;28;20020;-70